Time;durP1;ratioP1;P1;durP2;ratioP2;P2;SDS_P1;SDS_P2;PMS_P1;PMS_P2;Temp;Humidity;BMP_temperature;BMP_pressure;BME280_temperature;BME280_humidity;BME280_pressure;Samples;Min_cycle;Max_cycle;Signal;HPM_P1;HPM_P2
2022/11/19 00:00:50;;;;;;;13.20;4.95;;;;;;;15.51;75.83;99605.91;6318766;22;20018;-91
2022/11/19 00:03:16;;;;;;;;;;;;;;;15.59;75.96;99620.00;6321867;22;20024;-90
2022/11/19 00:08:49;;;;;;;14.38;4.55;;;;;;;15.37;75.81;99599.72;6389530;22;19918;-89
2022/11/19 00:12:53;;;;;;;11.90;4.85;;;;;;;15.51;75.70;99627.56;6353978;22;20396;-92
2022/11/19 00:14:01;;;;;;;13.65;4.60;;;;;;;15.62;74.75;99616.03;6336646;22;20014;-93
2022/11/19 00:16:27;;;;;;;12.07;4.72;;;;;;;15.60;75.05;99639.81;6327862;22;20003;-91
2022/11/19 00:18:52;;;;;;;13.40;4.63;;;;;;;15.58;75.03;99640.00;6326449;22;20002;-91
2022/11/19 00:21:18;;;;;;;12.90;4.40;;;;;;;15.69;74.97;99645.78;6296950;22;20002;-92
2022/11/19 00:23:45;;;;;;;13.95;4.82;;;;;;;15.61;75.14;99644.16;6324604;22;20082;-91
2022/11/19 00:26:12;;;;;;;8.65;4.00;;;;;;;15.68;75.14;99644.94;6327481;22;20006;-92
2022/11/19 00:28:38;;;;;;;8.73;4.00;;;;;;;15.68;75.02;99653.06;6356570;22;20012;-90
2022/11/19 00:31:05;;;;;;;12.25;4.47;;;;;;;15.47;75.08;99634.47;6324237;22;20022;-92
2022/11/19 00:33:31;;;;;;;11.55;4.35;;;;;;;15.50;74.98;99628.59;6309465;22;20017;-88
2022/11/19 00:35:57;;;;;;;11.00;4.20;;;;;;;15.65;74.81;99661.66;6362746;22;19998;-89
2022/11/19 00:38:23;;;;;;;13.90;4.20;;;;;;;15.65;75.02;99666.25;6314175;22;19994;-92
2022/11/19 00:40:48;;;;;;;9.93;4.10;;;;;;;15.59;74.87;99659.78;6342364;22;19993;-91
2022/11/19 00:45:58;;;;;;;10.90;4.20;;;;;;;15.49;75.24;99643.19;6368062;22;19969;-91
2022/11/19 00:48:24;;;;;;;12.68;4.55;;;;;;;15.68;74.83;99669.31;6336711;22;20006;-91
2022/11/19 00:50:49;;;;;;;;;;;;;;;15.77;74.26;99668.06;6327363;22;20404;-91
2022/11/19 00:53:15;;;;;;;8.85;4.35;;;;;;;15.59;74.57;99655.25;6342753;22;19915;-91
2022/11/19 00:55:41;;;;;;;12.02;4.25;;;;;;;15.65;74.23;99664.34;6342664;22;20007;-92
2022/11/19 00:58:06;;;;;;;;;;;;;;;15.72;74.12;99670.59;6316895;22;20431;-91
2022/11/19 01:00:31;;;;;;;;;;;;;;;15.73;74.07;99669.56;6349603;22;19909;-91
2022/11/19 01:02:57;;;;;;;12.00;4.80;;;;;;;15.75;73.70;99662.00;6317409;22;20258;-91
2022/11/19 01:05:23;;;;;;;13.07;4.63;;;;;;;15.65;73.86;99669.78;6288181;22;20011;-89
2022/11/19 01:07:48;;;;;;;;;;;;;;;15.71;73.79;99673.50;6314241;22;20017;-92
2022/11/19 01:10:14;;;;;;;14.05;4.63;;;;;;;15.72;73.49;99681.44;6340700;22;19926;-92
2022/11/19 01:13:33;;;;;;;13.68;4.57;;;;;;;15.63;73.06;99659.16;6290990;22;20365;-92
2022/11/19 01:15:28;;;;;;;12.13;4.30;;;;;;;15.69;73.37;99694.56;6314778;22;20007;-92
2022/11/19 01:17:54;;;;;;;15.00;4.45;;;;;;;15.69;73.21;99691.84;6291339;22;20053;-89
2022/11/19 01:20:19;;;;;;;10.75;4.55;;;;;;;15.80;72.77;99700.16;6341767;22;19999;-91
2022/11/19 01:22:45;;;;;;;;;;;;;;;15.88;72.93;99709.06;6289271;22;20014;-89
2022/11/19 01:25:10;;;;;;;;;;;;;;;15.90;72.75;99706.97;6339907;22;20321;-92
2022/11/19 01:27:36;;;;;;;12.98;4.78;;;;;;;15.72;72.69;99678.72;6313520;22;19902;-91
2022/11/19 01:30:02;;;;;;;12.70;4.93;;;;;;;15.59;72.57;99670.63;6289875;22;20010;-93
2022/11/19 01:32:28;;;;;;;11.70;5.22;;;;;;;15.82;72.49;99703.44;6288749;22;20018;-90
2022/11/19 01:34:53;;;;;;;17.27;5.50;;;;;;;15.83;72.37;99707.84;6289519;22;20486;-92
2022/11/19 01:37:19;;;;;;;14.15;5.18;;;;;;;15.92;72.31;99710.28;6289777;22;20018;-92
2022/11/19 01:39:44;;;;;;;;;;;;;;;15.88;72.04;99709.06;6317144;22;19999;-91
2022/11/19 01:42:48;;;;;;;12.27;5.10;;;;;;;15.82;72.43;99710.75;6342436;22;20024;-94
2022/11/19 01:45:37;;;;;;;11.90;5.13;;;;;;;15.77;72.49;99703.28;6303692;22;20017;-90
2022/11/19 01:48:14;;;;;;;10.90;4.80;;;;;;;15.83;72.18;99707.84;6294050;22;20013;-91
2022/11/19 01:50:54;;;;;;;13.40;5.00;;;;;;;15.80;72.12;99719.13;6321034;22;20015;-92
2022/11/19 01:53:20;;;;;;;10.18;4.45;;;;;;;15.82;71.97;99717.00;6324037;22;20018;-90
2022/11/19 01:55:45;;;;;;;;;;;;;;;15.84;71.93;99714.09;6301162;22;20006;-91
2022/11/19 01:58:11;;;;;;;10.60;4.93;;;;;;;15.74;71.68;99692.88;6353947;22;19921;-91
2022/11/19 02:00:37;;;;;;;9.10;4.63;;;;;;;15.76;71.88;99701.63;6326595;22;20065;-93
2022/11/19 02:03:02;;;;;;;10.40;4.00;;;;;;;15.53;71.98;99666.09;6296938;22;20018;-92
2022/11/19 02:05:28;;;;;;;10.52;4.50;;;;;;;15.72;71.75;99697.69;6329475;22;20074;-91
2022/11/19 02:07:55;;;;;;;13.23;4.38;;;;;;;15.80;71.89;99712.84;6303678;22;20006;-92
2022/11/19 02:10:26;;;;;;;11.27;4.40;;;;;;;15.77;71.82;99711.41;6363591;22;20069;-90
2022/11/19 02:12:52;;;;;;;11.32;4.40;;;;;;;15.75;71.94;99709.97;6318073;22;20034;-92
2022/11/19 02:16:07;;;;;;;9.70;4.32;;;;;;;15.63;72.29;99707.09;6368987;22;20014;-90
2022/11/19 02:18:48;;;;;;;10.25;4.15;;;;;;;15.58;72.08;99699.63;6214812;23;20018;-92
2022/11/19 02:21:16;;;;;;;12.43;4.70;;;;;;;15.64;72.21;99716.91;6213822;23;20016;-92
2022/11/19 02:23:47;;;;;;;9.75;4.38;;;;;;;15.63;71.98;99726.88;6291446;22;20022;-93
2022/11/19 02:26:50;;;;;;;8.25;4.30;;;;;;;15.61;72.38;99744.41;6372709;22;20132;-91
2022/11/19 02:29:28;;;;;;;9.52;4.30;;;;;;;15.65;71.85;99747.53;6345315;22;20006;-92
2022/11/19 02:32:00;;;;;;;10.55;4.50;;;;;;;15.65;72.07;99750.22;6345004;22;20010;-91
2022/11/19 02:34:37;;;;;;;10.18;4.15;;;;;;;15.61;72.25;99755.25;6291493;22;20021;-91
2022/11/19 02:37:30;;;;;;;14.85;4.45;;;;;;;15.52;72.00;99751.09;6315807;22;20016;-89
2022/11/19 02:40:02;;;;;;;9.77;4.30;;;;;;;15.45;72.13;99758.44;6321001;22;20006;-93
2022/11/19 02:42:40;;;;;;;9.13;4.25;;;;;;;15.39;71.99;99750.13;6293647;22;20018;-95
2022/11/19 02:45:27;;;;;;;9.25;4.35;;;;;;;15.35;72.26;99743.47;6294481;22;20006;-93
2022/11/19 02:47:55;;;;;;;11.93;4.60;;;;;;;15.29;72.38;99748.91;6328159;22;20006;-92
2022/11/19 02:50:22;;;;;;;11.15;4.53;;;;;;;15.40;72.12;99773.47;6294888;22;20091;-91
2022/11/19 02:52:48;;;;;;;9.85;4.28;;;;;;;15.51;71.36;99776.56;6314600;22;20083;-92
2022/11/19 02:55:16;;;;;;;9.35;4.05;;;;;;;15.43;70.09;99749.69;6315540;22;20006;-90
2022/11/19 02:57:42;;;;;;;10.32;3.78;;;;;;;15.66;69.04;99793.34;6293996;22;20125;-91
2022/11/19 03:05:44;;;;;;;9.00;2.80;;;;;;;15.67;66.13;99776.06;6320750;22;20018;-90
2022/11/19 03:08:10;;;;;;;7.07;3.65;;;;;;;15.82;65.25;99795.59;6288105;22;20007;-92
2022/11/19 03:10:52;;;;;;;8.98;3.95;;;;;;;15.80;65.55;99800.44;6299985;22;20017;-91
2022/11/19 03:18:53;;;;;;;10.90;6.57;;;;;;;15.84;66.07;99827.91;6342887;22;19913;-91
2022/11/19 03:21:27;;;;;;;15.90;7.22;;;;;;;15.81;65.83;99839.19;6314134;22;20024;-89
2022/11/19 03:24:32;;;;;;;13.85;7.38;;;;;;;15.77;66.41;99848.78;6290227;22;20014;-91
2022/11/19 03:27:00;;;;;;;14.77;7.38;;;;;;;15.63;66.83;99856.09;6166504;23;20099;-92
2022/11/19 03:29:25;;;;;;;16.90;7.30;;;;;;;15.38;67.04;99839.72;6313791;22;20013;-92
2022/11/19 03:31:54;;;;;;;11.68;6.22;;;;;;;15.24;67.09;99819.97;6290488;22;20022;-92
2022/11/19 03:34:20;;;;;;;12.68;5.70;;;;;;;15.53;67.09;99866.56;6289010;22;20013;-92
2022/11/19 03:36:47;;;;;;;15.48;5.68;;;;;;;15.47;67.33;99872.81;6289672;22;20019;-92
2022/11/19 03:39:15;;;;;;;11.57;5.38;;;;;;;15.14;67.44;99842.06;6289363;22;20011;-91
2022/11/19 03:41:41;;;;;;;12.32;5.18;;;;;;;15.39;68.04;99896.38;6287339;22;20010;-93
2022/11/19 03:44:07;;;;;;;;;;;;;;;15.34;67.79;99898.06;6312983;22;20007;-93
2022/11/19 03:46:34;;;;;;;13.45;5.05;;;;;;;15.09;67.95;99877.03;6342922;22;19907;-92
2022/11/19 03:49:00;;;;;;;10.80;4.07;;;;;;;15.27;68.27;99922.44;6341927;22;20005;-93
2022/11/19 03:51:32;;;;;;;9.20;4.05;;;;;;;15.25;68.15;99921.81;6314733;22;20003;-90
2022/11/19 03:53:58;;;;;;;8.35;3.80;;;;;;;15.28;67.80;99926.81;6315831;22;20019;-91
2022/11/19 03:56:24;;;;;;;6.45;3.60;;;;;;;15.28;67.78;99929.50;6342298;22;20014;-92
2022/11/19 03:58:49;;;;;;;5.88;2.95;;;;;;;15.32;67.65;99957.84;6287160;22;20007;-92
2022/11/19 04:01:15;;;;;;;4.55;3.10;;;;;;;15.13;67.53;99913.50;6314086;22;20033;-92
2022/11/19 04:04:34;;;;;;;4.05;2.88;;;;;;;15.21;67.48;99944.94;6288552;22;20003;-91
2022/11/19 04:06:26;;;;;;;;;;;;;;;15.40;67.13;99959.50;6318330;22;20385;-91
2022/11/19 04:08:51;;;;;;;6.18;2.58;;;;;;;15.32;66.91;99948.91;6340338;22;19910;-91
2022/11/19 04:11:17;;;;;;;;;;;;;;;15.47;66.30;99954.91;6289185;22;20013;-92
2022/11/19 04:13:42;;;;;;;;;;;;;;;15.46;66.21;99974.09;6340887;22;19910;-93
2022/11/19 04:16:08;;;;;;;;;;;;;;;15.47;66.01;99973.03;6315490;22;19907;-92
2022/11/19 04:18:34;;;;;;;3.93;1.97;;;;;;;15.41;65.98;99975.56;6344550;22;19906;-93
2022/11/19 04:20:59;;;;;;;;;;;;;;;15.47;65.71;99973.88;6321782;22;20013;-93
2022/11/19 04:23:25;;;;;;;4.00;1.67;;;;;;;15.41;65.65;99967.44;6324243;22;20308;-92
2022/11/19 04:25:51;;;;;;;3.50;1.60;;;;;;;15.50;65.28;99978.03;6305818;22;19990;-89
2022/11/19 04:28:16;;;;;;;;;;;;;;;15.61;65.16;99990.94;6360904;22;19991;-91
2022/11/19 04:30:42;;;;;;;;;;;;;;;15.64;64.87;99998.69;6336345;22;19910;-91
2022/11/19 04:33:07;;;;;;;3.63;1.40;;;;;;;15.49;65.34;99979.91;6337015;22;19902;-91
2022/11/19 04:35:33;;;;;;;3.35;1.45;;;;;;;15.54;64.88;99998.25;6336725;22;20006;-92
2022/11/19 04:37:59;;;;;;;3.22;1.40;;;;;;;15.45;65.05;99985.97;6288795;22;20014;-93
2022/11/19 04:40:24;;;;;;;;;;;;;;;15.67;65.39;100019.09;6340255;22;20003;-92
2022/11/19 04:42:50;;;;;;;;;;;;;;;15.62;65.93;100033.28;6347615;22;19898;-89
2022/11/19 04:45:15;;;;;;;;;;;;;;;15.60;66.18;100043.50;6336124;22;19965;-91
2022/11/19 04:47:41;;;;;;;2.67;1.47;;;;;;;15.47;66.57;100041.59;6363240;22;20263;-92
2022/11/19 04:50:07;;;;;;;4.43;1.30;;;;;;;15.44;66.76;100044.72;6307944;22;20237;-91
2022/11/19 04:52:32;;;;;;;2.78;1.42;;;;;;;15.37;67.21;100060.16;6305377;22;20019;-91
2022/11/19 04:54:58;;;;;;;2.70;1.60;;;;;;;15.46;67.37;100064.31;6316174;22;20105;-92
2022/11/19 04:57:24;;;;;;;4.95;1.50;;;;;;;15.35;67.30;100056.81;6339895;22;19999;-92
2022/11/19 04:59:50;;;;;;;3.83;1.70;;;;;;;15.39;67.60;100067.03;6287304;22;20455;-94
2022/11/19 05:02:15;;;;;;;;;;;;;;;15.46;67.54;100079.75;6314471;22;20022;-92
2022/11/19 05:04:40;;;;;;;;;;;;;;;15.33;68.02;100085.97;6314201;22;19907;-92
2022/11/19 05:07:06;;;;;;;6.17;1.97;;;;;;;15.12;68.45;100062.59;6314392;22;19906;-91
2022/11/19 05:09:32;;;;;;;2.83;1.80;;;;;;;15.01;68.69;100057.78;6288775;22;20420;-91
2022/11/19 05:11:57;;;;;;;2.88;1.73;;;;;;;15.17;68.71;100077.22;6289535;22;20398;-93
2022/11/19 05:14:23;;;;;;;3.85;1.83;;;;;;;15.19;68.78;100098.66;6314683;22;20034;-92
2022/11/19 05:16:48;;;;;;;4.13;1.60;;;;;;;14.94;68.62;100068.63;6313785;22;20067;-92
2022/11/19 05:19:14;;;;;;;;;;;;;;;15.16;68.50;100112.59;6348484;22;20003;-93
2022/11/19 05:21:39;;;;;;;4.25;1.60;;;;;;;15.04;68.61;100084.47;6315733;22;19929;-93
2022/11/19 05:24:05;;;;;;;2.80;1.70;;;;;;;15.22;68.00;100117.22;6292328;22;20002;-92
2022/11/19 05:26:31;;;;;;;3.55;1.70;;;;;;;14.92;68.10;100087.75;6292372;22;20015;-93
2022/11/19 05:28:56;;;;;;;;;;;;;;;15.13;68.24;100126.56;6291131;22;20018;-91
2022/11/19 05:31:22;;;;;;;3.00;1.90;;;;;;;15.03;67.44;100107.13;6314121;22;19902;-91
2022/11/19 05:33:48;;;;;;;3.25;1.90;;;;;;;15.14;67.73;100137.16;6286313;22;20002;-91
2022/11/19 05:36:13;;;;;;;3.30;2.00;;;;;;;15.01;67.88;100145.25;6297380;22;20032;-92
2022/11/19 05:38:40;;;;;;;3.80;1.90;;;;;;;15.20;67.49;100152.59;6292018;22;20365;-92
2022/11/19 05:41:05;;;;;;;4.05;2.17;;;;;;;15.15;66.99;100138.03;6315746;22;20003;-92
2022/11/19 05:43:31;;;;;;;4.60;1.88;;;;;;;14.93;66.96;100123.75;6296157;22;20058;-91
2022/11/19 05:46:02;;;;;;;;;;;;;;;15.17;67.33;100179.25;6293477;22;20011;-92
2022/11/19 05:48:28;;;;;;;3.72;2.03;;;;;;;15.16;67.91;100177.59;6314251;22;20380;-93
2022/11/19 05:50:54;;;;;;;4.28;2.20;;;;;;;15.05;67.86;100197.09;6291583;22;20002;-93
2022/11/19 05:53:19;;;;;;;8.55;2.03;;;;;;;14.87;67.44;100154.38;6318098;22;20328;-92
2022/11/19 05:55:45;;;;;;;;;;;;;;;15.35;67.13;100209.31;6290776;22;20451;-92
2022/11/19 05:58:12;;;;;;;;;;;;;;;15.40;67.30;100217.69;6316262;22;19902;-93
2022/11/19 06:00:38;;;;;;;3.70;2.10;;;;;;;15.36;67.91;100227.25;6343863;22;19906;-92
2022/11/19 06:03:03;;;;;;;5.20;2.20;;;;;;;15.40;68.31;100242.06;6289846;22;20034;-91
2022/11/19 06:05:30;;;;;;;4.05;2.28;;;;;;;15.38;68.00;100230.59;6316474;22;20010;-91
2022/11/19 06:07:56;;;;;;;5.47;2.35;;;;;;;15.29;67.91;100196.59;6290496;22;20002;-92
2022/11/19 06:10:21;;;;;;;3.38;2.47;;;;;;;15.34;67.30;100221.19;6315511;22;20430;-93
2022/11/19 06:12:47;;;;;;;;;;;;;;;15.46;67.25;100253.13;6315821;22;20010;-93
2022/11/19 06:15:12;;;;;;;;;;;;;;;15.46;66.89;100258.53;6341675;22;19914;-92
2022/11/19 06:17:38;;;;;;;4.03;2.33;;;;;;;15.47;66.77;100261.03;6315330;22;19933;-91
2022/11/19 06:20:07;;;;;;;;;;;;;;;15.62;65.99;100271.72;6288048;22;20106;-91
2022/11/19 06:22:33;;;;;;;6.00;2.42;;;;;;;15.60;65.31;100249.41;6341065;22;20331;-92
2022/11/19 06:24:59;;;;;;;6.68;2.67;;;;;;;15.54;63.58;100242.91;6311704;22;20026;-92
2022/11/19 06:27:24;;;;;;;;;;;;;;;15.59;62.72;100266.69;6340748;22;20147;-91
2022/11/19 06:29:50;;;;;;;4.28;2.33;;;;;;;15.52;61.39;100269.41;6317367;22;20250;-91
2022/11/19 06:32:16;;;;;;;7.10;2.60;;;;;;;15.66;60.85;100264.00;6296901;22;20422;-91
2022/11/19 06:34:41;;;;;;;4.97;2.40;;;;;;;15.43;60.59;100257.06;6342847;22;20025;-93
2022/11/19 06:37:07;;;;;;;;;;;;;;;15.73;59.50;100298.28;6294055;22;20409;-91
2022/11/19 06:39:32;;;;;;;3.40;2.28;;;;;;;15.63;59.01;100265.25;6324773;22;19913;-92
2022/11/19 06:42:34;;;;;;;5.35;2.50;;;;;;;15.72;58.24;100274.91;6323912;22;20006;-92
2022/11/19 06:44:43;;;;;;;;;;;;;;;16.25;57.12;100310.25;6337599;22;19999;-91
2022/11/19 06:47:09;;;;;;;4.85;2.40;;;;;;;16.20;56.51;100322.75;6336152;22;19958;-90
2022/11/19 06:49:34;;;;;;;;;;;;;;;16.35;56.02;100322.59;6334144;22;20036;-90
2022/11/19 06:51:59;;;;;;;;;;;;;;;16.43;55.38;100327.81;6339585;22;19903;-91
2022/11/19 06:54:25;;;;;;;7.50;2.70;;;;;;;16.99;53.87;100330.13;6378055;22;20244;-92
2022/11/19 06:56:51;;;;;;;;;;;;;;;19.04;48.98;100321.06;6317497;22;20006;-92
2022/11/19 06:59:16;;;;;;;3.55;2.60;;;;;;;20.72;45.04;100307.75;6317704;22;20267;-92
2022/11/19 07:01:42;;;;;;;5.78;2.55;;;;;;;22.14;40.78;100298.16;6344363;22;20010;-91
2022/11/19 07:04:08;;;;;;;4.50;2.78;;;;;;;23.50;37.48;100289.84;6318481;22;20002;-93
2022/11/19 07:06:34;;;;;;;5.78;2.35;;;;;;;24.64;35.21;100310.84;6319945;22;20078;-93
2022/11/19 07:09:00;;;;;;;3.92;2.30;;;;;;;24.19;34.65;100309.31;6293000;22;20034;-96
2022/11/19 07:11:25;;;;;;;4.47;2.15;;;;;;;23.59;36.15;100304.78;6320557;22;19994;-92
2022/11/19 07:13:57;;;;;;;4.32;2.40;;;;;;;24.99;33.38;100317.69;6345041;22;20002;-91
2022/11/19 07:16:28;;;;;;;4.15;2.25;;;;;;;24.26;33.86;100309.13;6321200;22;20049;-94
2022/11/19 07:18:55;;;;;;;3.40;2.45;;;;;;;22.52;36.73;100313.13;6320023;22;20024;-93
2022/11/19 07:21:21;;;;;;;4.82;3.00;;;;;;;22.53;36.97;100338.59;6321445;22;20010;-94
2022/11/19 07:23:46;;;;;;;4.60;3.10;;;;;;;24.26;34.19;100335.75;6317738;22;20004;-92
2022/11/19 07:26:12;;;;;;;6.25;3.28;;;;;;;24.95;32.62;100333.06;6315744;22;20010;-94
2022/11/19 07:28:38;;;;;;;9.10;3.20;;;;;;;26.03;30.81;100348.22;6369447;22;20078;-94
2022/11/19 07:31:06;;;;;;;7.03;3.60;;;;;;;27.19;29.00;100327.59;6317613;22;19998;-94
2022/11/19 07:33:32;;;;;;;7.38;3.95;;;;;;;26.90;28.86;100362.13;6341052;22;20006;-94
2022/11/19 07:35:58;;;;;;;7.00;4.28;;;;;;;27.81;28.10;100353.91;6317489;22;20017;-94
2022/11/19 07:38:23;;;;;;;8.52;4.20;;;;;;;28.74;26.48;100345.91;6317742;22;20015;-95
2022/11/19 07:40:53;;;;;;;6.97;3.60;;;;;;;28.29;26.91;100361.69;6324308;22;20006;-93
2022/11/19 07:43:18;;;;;;;6.75;3.38;;;;;;;28.41;26.66;100370.47;6344543;22;20001;-96
2022/11/19 07:45:44;;;;;;;5.30;3.10;;;;;;;26.76;28.81;100354.69;6347972;22;20002;-93
2022/11/19 07:48:10;;;;;;;3.65;2.58;;;;;;;26.33;30.42;100365.94;6343343;22;20159;-92
2022/11/19 07:50:36;;;;;;;3.45;2.42;;;;;;;26.49;30.25;100372.28;6321908;22;20002;-93
2022/11/19 07:53:02;;;;;;;7.85;2.40;;;;;;;26.63;29.52;100384.47;6319177;22;20020;-94
2022/11/19 07:55:32;;;;;;;2.75;2.00;;;;;;;26.14;30.68;100390.41;6322330;22;19999;-94
2022/11/19 07:57:57;;;;;;;9.38;2.47;;;;;;;26.43;30.06;100363.16;6308023;22;20023;-92
2022/11/19 08:00:23;;;;;;;5.53;2.50;;;;;;;25.90;31.40;100387.31;6340829;22;20023;-94
2022/11/19 08:02:49;;;;;;;3.92;2.67;;;;;;;25.22;32.26;100385.25;6322223;22;19998;-92
2022/11/19 08:05:22;;;;;;;3.05;2.40;;;;;;;23.95;33.98;100352.75;6323612;22;20002;-93
2022/11/19 08:07:48;;;;;;;5.22;3.05;;;;;;;23.53;34.94;100363.41;6348476;22;19999;-94
2022/11/19 08:10:14;;;;;;;5.80;3.28;;;;;;;22.81;36.10;100367.81;6293034;22;20013;-93
2022/11/19 08:12:40;;;;;;;5.63;2.78;;;;;;;22.29;37.24;100388.00;6315195;22;20085;-93
2022/11/19 08:15:06;;;;;;;7.72;4.10;;;;;;;22.06;37.56;100386.16;6313851;22;20026;-93
2022/11/19 08:20:16;;;;;;;8.07;2.47;;;;;;;21.49;38.50;100410.66;6347817;22;20010;-93
2022/11/19 08:22:42;;;;;;;4.95;2.50;;;;;;;22.04;37.74;100404.75;6307863;22;20011;-94
2022/11/19 08:25:08;;;;;;;7.32;2.60;;;;;;;22.70;36.38;100423.53;6336178;22;19991;-90
2022/11/19 08:27:33;;;;;;;3.55;2.40;;;;;;;22.90;35.29;100384.69;6363027;22;19999;-93
2022/11/19 08:29:59;;;;;;;4.47;2.50;;;;;;;22.40;36.45;100424.63;6310154;22;20010;-92
2022/11/19 08:32:25;;;;;;;6.65;2.80;;;;;;;22.05;37.00;100406.38;6332009;22;20006;-93
2022/11/19 08:34:50;;;;;;;7.40;2.58;;;;;;;23.40;34.85;100435.94;6346031;22;20007;-93
2022/11/19 08:37:16;;;;;;;12.25;4.43;;;;;;;23.23;34.84;100437.88;6315156;22;20130;-91
2022/11/19 08:39:41;;;;;;;11.52;4.70;;;;;;;23.90;33.56;100431.44;6314968;22;20399;-92
2022/11/19 08:44:53;;;;;;;;;;;;;;;26.42;29.55;100437.88;6338717;22;20342;-92
2022/11/19 08:47:19;;;;;;;5.85;2.80;;;;;;;27.92;26.67;100410.78;6320146;22;19911;-91
2022/11/19 08:49:45;;;;;;;5.63;2.72;;;;;;;29.39;25.02;100448.00;6361869;22;20025;-92
2022/11/19 08:52:10;;;;;;;7.22;2.75;;;;;;;29.85;23.93;100450.28;6362403;22;19987;-93
2022/11/19 08:54:36;;;;;;;6.10;2.58;;;;;;;30.61;23.32;100470.69;6310096;22;20019;-92
2022/11/19 08:57:02;;;;;;;7.28;2.90;;;;;;;30.59;23.10;100472.94;6363399;22;20015;-93
2022/11/19 08:59:28;;;;;;;4.60;2.90;;;;;;;29.77;23.90;100448.19;6324788;22;20010;-93
2022/11/19 09:01:53;;;;;;;4.35;2.70;;;;;;;27.59;26.83;100442.63;6344963;22;20058;-94
2022/11/19 09:04:21;;;;;;;4.68;2.80;;;;;;;27.04;28.00;100460.88;6352056;22;19999;-92
2022/11/19 09:06:54;;;;;;;4.07;2.75;;;;;;;26.22;29.40;100474.44;6331964;22;19991;-92
2022/11/19 09:09:19;;;;;;;7.25;3.55;;;;;;;23.97;33.61;100489.75;6355183;22;20003;-93
2022/11/19 09:11:45;;;;;;;4.32;3.33;;;;;;;23.22;34.96;100502.84;6350492;22;20003;-94
2022/11/19 09:14:11;;;;;;;4.93;2.90;;;;;;;22.72;35.84;100473.44;6327257;22;20007;-93
2022/11/19 09:16:38;;;;;;;7.45;3.60;;;;;;;22.22;37.18;100505.06;6360806;22;19999;-93
2022/11/19 09:19:04;;;;;;;4.63;3.50;;;;;;;22.07;37.64;100504.69;6358600;22;19983;-92
2022/11/19 09:21:30;;;;;;;5.68;3.97;;;;;;;22.18;37.35;100500.28;6333165;22;20010;-94
2022/11/19 09:23:55;;;;;;;7.47;4.22;;;;;;;21.77;37.93;100486.53;6358275;22;20033;-94
2022/11/19 09:26:21;;;;;;;9.65;4.60;;;;;;;22.04;37.88;100495.06;6325954;22;20010;-94
2022/11/19 09:28:49;;;;;;;9.20;5.18;;;;;;;21.36;38.26;100451.91;6322082;22;20451;-94
2022/11/19 09:31:16;;;;;;;6.55;4.78;;;;;;;21.84;38.03;100486.41;6296547;22;20067;-90
2022/11/19 09:33:44;;;;;;;6.63;5.15;;;;;;;22.18;37.13;100478.38;6323353;22;20017;-91
2022/11/19 09:36:10;;;;;;;8.35;4.55;;;;;;;22.90;35.94;100495.16;6347648;22;19998;-91
2022/11/19 09:38:36;;;;;;;13.45;5.70;;;;;;;25.31;32.25;100522.31;6317433;22;20003;-93
2022/11/19 09:41:22;;;;;;;6.63;4.43;;;;;;;26.43;29.93;100500.16;6342602;22;20021;-93
2022/11/19 09:44:14;;;;;;;7.70;4.03;;;;;;;27.82;27.87;100504.72;6294595;22;20027;-94
2022/11/19 09:47:05;;;;;;;6.85;4.10;;;;;;;29.71;24.91;100480.66;6355793;22;20097;-94
2022/11/19 09:50:01;;;;;;;12.60;3.90;;;;;;;28.80;26.07;100508.78;6302649;22;20422;-94
2022/11/19 09:52:28;;;;;;;5.68;4.30;;;;;;;27.84;26.67;100488.72;6320220;22;20011;-94
2022/11/19 09:54:54;;;;;;;6.35;3.97;;;;;;;27.24;27.60;100498.72;6292752;22;20053;-93
2022/11/19 09:57:26;;;;;;;8.70;3.55;;;;;;;25.33;30.46;100526.47;6295576;22;20014;-94
2022/11/19 09:59:52;;;;;;;5.32;4.05;;;;;;;24.71;31.50;100510.47;6321104;22;20007;-92
2022/11/19 10:02:28;;;;;;;10.35;4.13;;;;;;;24.11;33.10;100525.91;6347636;22;20077;-92
2022/11/19 10:04:53;;;;;;;8.70;4.32;;;;;;;25.05;31.52;100486.31;6322380;22;20003;-91
2022/11/19 10:07:39;;;;;;;6.85;3.13;;;;;;;25.05;31.32;100530.31;6318165;22;20002;-94
2022/11/19 10:10:04;;;;;;;9.25;4.07;;;;;;;25.13;31.30;100526.28;6320951;22;20336;-95
2022/11/19 10:12:43;;;;;;;4.22;2.70;;;;;;;25.32;30.40;100493.72;6343736;22;20033;-94
2022/11/19 10:15:17;;;;;;;4.22;3.10;;;;;;;25.65;30.45;100534.69;6293245;22;20075;-94
2022/11/19 10:17:52;;;;;;;6.45;2.95;;;;;;;25.19;30.38;100503.25;6344269;22;20006;-93
2022/11/19 10:20:35;;;;;;;7.70;3.78;;;;;;;25.94;30.10;100536.28;6290295;22;20112;-93
2022/11/19 10:23:12;;;;;;;6.88;3.97;;;;;;;26.50;28.86;100536.56;6342687;22;20014;-95
2022/11/19 10:25:41;;;;;;;6.57;4.30;;;;;;;26.20;28.65;100505.06;6343279;22;20028;-94
2022/11/19 10:28:14;;;;;;;5.65;3.67;;;;;;;26.33;28.75;100545.03;6343671;22;20084;-92
2022/11/19 10:30:40;;;;;;;7.80;3.97;;;;;;;26.15;29.07;100540.81;6344448;22;19999;-93
2022/11/19 10:33:29;;;;;;;9.45;4.35;;;;;;;27.16;28.08;100538.72;6294792;22;20026;-93
2022/11/19 10:35:58;;;;;;;4.55;3.10;;;;;;;27.55;26.95;100533.47;6300767;22;20014;-92
2022/11/19 10:38:32;;;;;;;7.03;3.20;;;;;;;28.85;25.34;100515.41;6343798;22;20014;-93
2022/11/19 10:41:00;;;;;;;6.20;3.50;;;;;;;30.29;23.81;100510.22;6294249;22;20385;-93
2022/11/19 10:43:27;;;;;;;5.38;4.45;;;;;;;28.67;25.27;100536.25;6353314;22;20009;-92
2022/11/19 10:45:54;;;;;;;5.82;3.38;;;;;;;28.49;26.11;100551.53;6321846;22;20009;-92
2022/11/19 10:48:22;;;;;;;6.38;4.13;;;;;;;28.69;25.53;100523.78;6347838;22;20423;-93
2022/11/19 10:50:48;;;;;;;4.85;3.33;;;;;;;29.61;24.50;100541.66;6344112;22;20005;-92
2022/11/19 10:53:30;;;;;;;6.28;3.10;;;;;;;29.83;23.95;100555.09;6318164;22;20441;-95
2022/11/19 10:56:00;;;;;;;6.10;3.13;;;;;;;30.97;22.77;100552.59;6344406;22;19994;-93
2022/11/19 10:58:47;;;;;;;4.43;3.47;;;;;;;31.67;22.08;100566.50;6320716;22;20006;-92
2022/11/19 11:01:25;;;;;;;7.28;3.00;;;;;;;31.76;22.31;100566.63;6353740;22;20015;-92
2022/11/19 11:03:59;;;;;;;4.32;3.15;;;;;;;32.05;21.38;100563.59;6352764;22;19999;-92
2022/11/19 11:06:25;;;;;;;;;;;;;;;32.74;20.71;100558.03;6354871;22;20006;-94
2022/11/19 11:08:52;;;;;;;5.40;3.00;;;;;;;33.89;19.48;100549.41;6325442;22;19902;-94
2022/11/19 11:17:01;;;;;;;5.28;2.35;;;;;;;29.43;23.92;100548.75;6321743;22;20133;-94
2022/11/19 11:19:26;;;;;;;5.50;3.30;;;;;;;29.74;23.98;100549.34;6344671;22;20006;-94
2022/11/19 11:21:53;;;;;;;4.07;3.00;;;;;;;29.41;24.58;100571.19;6319601;22;20034;-94
2022/11/19 11:24:19;;;;;;;5.70;2.83;;;;;;;30.52;23.30;100563.19;6302471;22;20006;-92
2022/11/19 11:26:44;;;;;;;5.60;2.70;;;;;;;30.34;23.14;100537.88;6332676;22;20006;-94
2022/11/19 11:29:13;;;;;;;5.70;2.80;;;;;;;29.11;24.88;100552.88;6362639;22;19994;-94
2022/11/19 11:31:40;;;;;;;7.03;3.00;;;;;;;28.86;25.11;100566.84;6364725;22;20001;-93
2022/11/19 11:34:27;;;;;;;8.18;3.10;;;;;;;28.30;25.99;100551.31;6337821;22;20027;-92
2022/11/19 11:36:53;;;;;;;10.20;3.05;;;;;;;28.35;25.78;100579.78;6341096;22;19999;-92
2022/11/19 11:39:25;;;;;;;7.57;3.10;;;;;;;26.94;27.85;100588.59;6286816;22;19999;-94
2022/11/19 11:41:50;;;;;;;4.35;2.88;;;;;;;26.42;28.59;100578.44;6294705;22;20006;-91
2022/11/19 11:44:19;;;;;;;6.53;3.10;;;;;;;25.77;29.46;100591.50;6314801;22;20166;-94
2022/11/19 11:46:52;;;;;;;5.70;3.10;;;;;;;25.95;29.75;100582.03;6313884;22;20401;-93
2022/11/19 11:49:31;;;;;;;4.90;3.10;;;;;;;26.30;29.24;100567.63;6314629;22;20045;-93
2022/11/19 11:52:11;;;;;;;3.97;2.72;;;;;;;27.61;27.45;100552.81;6338974;22;20007;-94
2022/11/19 11:54:52;;;;;;;6.07;3.30;;;;;;;27.82;27.24;100576.53;6317245;22;20427;-92
2022/11/19 11:57:19;;;;;;;8.27;3.00;;;;;;;27.07;27.84;100571.53;6344135;22;20017;-93
2022/11/19 11:59:45;;;;;;;7.35;3.05;;;;;;;26.51;28.37;100557.53;6343059;22;19998;-94
2022/11/19 12:02:29;;;;;;;6.25;2.92;;;;;;;26.80;28.29;100587.44;6341401;22;20006;-93
2022/11/19 12:04:55;;;;;;;7.73;2.70;;;;;;;26.80;28.04;100554.34;6317534;22;20002;-92
2022/11/19 12:07:24;;;;;;;4.18;2.95;;;;;;;27.05;28.24;100573.72;6315713;22;20245;-93
2022/11/19 12:10:02;;;;;;;9.85;3.40;;;;;;;27.10;27.66;100554.41;6341730;22;20033;-93